Time;durP1;ratioP1;P1;durP2;ratioP2;P2;SDS_P1;SDS_P2;PMS_P1;PMS_P2;Temp;Humidity;BMP_temperature;BMP_pressure;BME280_temperature;BME280_humidity;BME280_pressure;Samples;Min_cycle;Max_cycle;Signal;HPM_P1;HPM_P2
2022/08/31 00:05:04;;;;;;;3.75;1.13;;;;;;;;;;5010416;28;20323;-12
2022/08/31 00:07:33;;;;;;;6.07;1.52;;;;;;;;;;5010627;28;20922;-12
2022/08/31 00:10:02;;;;;;;0.88;0.80;;;;;;;;;;5010613;28;20231;-12
2022/08/31 00:12:30;;;;;;;3.17;1.35;;;;;;;;;;5010562;28;20231;-12
2022/08/31 00:14:59;;;;;;;3.50;1.20;;;;;;;;;;5021826;28;20706;-12
2022/08/31 00:17:26;;;;;;;1.10;1.00;;;;;;;;;;5010334;28;21010;-12
2022/08/31 00:19:53;;;;;;;2.60;1.20;;;;;;;;;;4996896;28;20239;-12
2022/08/31 00:22:21;;;;;;;2.83;1.23;;;;;;;;;;5010003;28;20251;-13
2022/08/31 00:24:48;;;;;;;3.13;1.05;;;;;;;;;;5009838;28;20258;-12
2022/08/31 00:27:15;;;;;;;2.20;1.17;;;;;;;;;;5010283;28;20331;-12
2022/08/31 00:29:43;;;;;;;2.50;1.20;;;;;;;;;;5010378;28;20235;-12
2022/08/31 00:32:12;;;;;;;3.25;1.23;;;;;;;;;;5010011;28;20231;-12
2022/08/31 00:34:39;;;;;;;2.35;1.25;;;;;;;;;;5009557;28;20232;-12
2022/08/31 00:37:10;;;;;;;4.10;1.23;;;;;;;;;;5009926;28;20294;-12
2022/08/31 00:39:37;;;;;;;1.73;1.02;;;;;;;;;;5010585;28;20842;-12
2022/08/31 00:42:04;;;;;;;1.48;1.10;;;;;;;;;;4996267;28;20232;-12
2022/08/31 00:44:32;;;;;;;3.67;1.27;;;;;;;;;;5010002;28;20238;-12
2022/08/31 00:46:59;;;;;;;4.60;1.00;;;;;;;;;;5009603;28;20714;-12
2022/08/31 00:49:28;;;;;;;3.28;1.10;;;;;;;;;;5009704;28;20535;-12
2022/08/31 00:51:56;;;;;;;1.90;1.10;;;;;;;;;;5006066;28;21023;-12
2022/08/31 00:54:24;;;;;;;2.00;1.17;;;;;;;;;;5004566;28;20349;-12
2022/08/31 00:56:51;;;;;;;3.10;1.38;;;;;;;;;;5010162;28;20270;-12
2022/08/31 00:59:19;;;;;;;2.00;1.15;;;;;;;;;;5009828;28;20231;-12
2022/08/31 01:01:46;;;;;;;2.65;0.90;;;;;;;;;;5003275;28;20235;-12
2022/08/31 01:04:14;;;;;;;2.42;1.40;;;;;;;;;;5008936;28;20241;-12
2022/08/31 01:06:42;;;;;;;5.07;1.17;;;;;;;;;;5011868;28;20238;-12
2022/08/31 01:09:11;;;;;;;2.67;1.27;;;;;;;;;;5008291;28;20308;-12
2022/08/31 01:11:38;;;;;;;2.15;0.82;;;;;;;;;;5008297;28;20231;-12
2022/08/31 01:14:07;;;;;;;1.83;1.17;;;;;;;;;;5008871;28;20234;-12
2022/08/31 01:16:35;;;;;;;3.03;1.15;;;;;;;;;;5009714;28;20235;-12
2022/08/31 01:19:03;;;;;;;5.60;1.30;;;;;;;;;;5009476;28;20310;-12
2022/08/31 01:21:32;;;;;;;1.40;0.88;;;;;;;;;;5006347;28;20235;-12
2022/08/31 01:24:00;;;;;;;4.38;1.20;;;;;;;;;;5009771;28;20741;-12
2022/08/31 01:26:28;;;;;;;4.68;1.50;;;;;;;;;;5009398;28;20228;-12
2022/08/31 01:28:58;;;;;;;2.17;0.98;;;;;;;;;;5009584;28;20231;-12
2022/08/31 01:31:26;;;;;;;2.85;1.27;;;;;;;;;;5009510;28;20236;-12
2022/08/31 01:33:54;;;;;;;5.70;1.30;;;;;;;;;;5009539;28;20232;-12
2022/08/31 01:36:23;;;;;;;1.42;1.08;;;;;;;;;;5007398;28;20243;-12
2022/08/31 01:38:51;;;;;;;3.13;1.13;;;;;;;;;;5007843;28;20232;-12
2022/08/31 01:41:21;;;;;;;2.13;1.10;;;;;;;;;;5009505;28;20661;-12
2022/08/31 01:43:48;;;;;;;5.07;1.00;;;;;;;;;;5009767;28;20235;-12
2022/08/31 01:46:16;;;;;;;3.25;0.90;;;;;;;;;;5007503;28;20235;-12
2022/08/31 01:48:43;;;;;;;1.55;1.00;;;;;;;;;;5012210;28;20711;-12
2022/08/31 01:51:11;;;;;;;2.70;1.08;;;;;;;;;;5012695;28;20235;-12
2022/08/31 01:53:39;;;;;;;2.50;1.00;;;;;;;;;;5012753;28;20228;-12
2022/08/31 01:56:10;;;;;;;1.50;1.10;;;;;;;;;;5012979;28;20235;-12
2022/08/31 01:58:39;;;;;;;1.75;0.90;;;;;;;;;;5016188;28;20226;-12
2022/08/31 02:01:07;;;;;;;5.95;1.13;;;;;;;;;;5001827;28;20239;-12
2022/08/31 02:03:54;;;;;;;1.58;0.90;;;;;;;;;;5012725;28;20240;-12
2022/08/31 02:06:24;;;;;;;1.80;0.90;;;;;;;;;;5012822;28;20703;-12
2022/08/31 02:08:51;;;;;;;2.25;1.00;;;;;;;;;;5012427;28;21038;-12
2022/08/31 02:11:18;;;;;;;2.88;0.90;;;;;;;;;;5025058;28;20231;-12
2022/08/31 02:13:47;;;;;;;2.40;0.82;;;;;;;;;;5012610;28;20276;-12
2022/08/31 02:16:15;;;;;;;0.98;0.70;;;;;;;;;;5007232;28;20246;-12
2022/08/31 02:18:42;;;;;;;3.17;1.00;;;;;;;;;;5003930;28;20232;-12
2022/08/31 02:21:11;;;;;;;2.15;0.98;;;;;;;;;;5029463;22;20235;-13
2022/08/31 02:23:38;;;;;;;1.70;0.90;;;;;;;;;;5047186;28;20307;-13
2022/08/31 02:26:06;;;;;;;0.88;0.65;;;;;;;;;;5052341;28;20234;-13
2022/08/31 02:28:33;;;;;;;1.73;0.70;;;;;;;;;;5052682;28;20228;-13
2022/08/31 02:31:02;;;;;;;1.40;0.70;;;;;;;;;;5052263;28;20233;-13
2022/08/31 02:33:30;;;;;;;3.10;1.10;;;;;;;;;;5052653;28;20226;-13
2022/08/31 02:35:57;;;;;;;1.95;0.77;;;;;;;;;;5052614;28;20242;-13
2022/08/31 02:38:26;;;;;;;1.85;0.90;;;;;;;;;;5052578;28;20716;-13
2022/08/31 02:40:53;;;;;;;2.40;0.80;;;;;;;;;;5052201;28;20954;-13
2022/08/31 02:43:20;;;;;;;1.35;0.70;;;;;;;;;;5051368;28;21084;-13
2022/08/31 02:45:51;;;;;;;0.70;0.70;;;;;;;;;;5047162;28;20280;-13
2022/08/31 02:48:21;;;;;;;2.70;0.90;;;;;;;;;;5050984;28;20230;-13
2022/08/31 02:50:49;;;;;;;1.88;0.63;;;;;;;;;;5048366;28;20230;-13
2022/08/31 02:53:17;;;;;;;2.55;0.80;;;;;;;;;;5050825;28;20238;-13
2022/08/31 02:55:45;;;;;;;1.27;0.80;;;;;;;;;;5050398;28;20307;-13
2022/08/31 02:58:12;;;;;;;1.30;0.50;;;;;;;;;;5039982;28;20236;-13
2022/08/31 03:00:40;;;;;;;4.35;0.90;;;;;;;;;;5051166;28;20232;-13
2022/08/31 03:03:07;;;;;;;1.45;0.70;;;;;;;;;;5051590;28;20234;-13
2022/08/31 03:05:36;;;;;;;2.20;0.93;;;;;;;;;;5062846;28;20237;-13
2022/08/31 03:08:03;;;;;;;2.65;0.70;;;;;;;;;;5052118;28;20257;-13
2022/08/31 03:10:30;;;;;;;1.27;0.60;;;;;;;;;;5051095;28;20862;-13
2022/08/31 03:12:58;;;;;;;2.58;0.60;;;;;;;;;;5050941;28;20226;-13
2022/08/31 03:15:25;;;;;;;2.15;1.00;;;;;;;;;;5050745;28;20242;-13
2022/08/31 03:17:53;;;;;;;4.03;0.73;;;;;;;;;;5051115;28;20281;-13
2022/08/31 03:20:21;;;;;;;1.70;0.68;;;;;;;;;;5050996;28;20237;-13
2022/08/31 03:22:49;;;;;;;2.13;0.88;;;;;;;;;;5050641;28;20242;-13
2022/08/31 03:25:18;;;;;;;2.20;0.70;;;;;;;;;;5050840;28;20284;-12
2022/08/31 03:27:46;;;;;;;2.85;0.60;;;;;;;;;;5050609;28;20397;-13
2022/08/31 03:30:14;;;;;;;1.02;0.70;;;;;;;;;;5051018;28;20254;-13
2022/08/31 03:32:41;;;;;;;3.35;0.77;;;;;;;;;;5051620;28;21483;-13
2022/08/31 03:35:09;;;;;;;1.15;0.60;;;;;;;;;;5050819;28;20234;-13
2022/08/31 03:37:36;;;;;;;2.00;0.73;;;;;;;;;;5050163;28;20230;-13
2022/08/31 03:40:05;;;;;;;1.50;0.68;;;;;;;;;;5050453;28;20222;-13
2022/08/31 03:42:33;;;;;;;0.63;0.40;;;;;;;;;;5049903;28;20242;-13
2022/08/31 03:45:00;;;;;;;0.90;0.57;;;;;;;;;;5050499;28;20981;-13
2022/08/31 03:47:28;;;;;;;0.93;0.65;;;;;;;;;;5050623;28;20694;-13
2022/08/31 03:49:57;;;;;;;1.20;0.50;;;;;;;;;;5050024;28;20659;-13
2022/08/31 03:52:24;;;;;;;1.27;0.50;;;;;;;;;;5050436;28;20230;-13
2022/08/31 03:54:52;;;;;;;3.35;0.63;;;;;;;;;;5050775;28;20249;-13
2022/08/31 03:57:20;;;;;;;3.10;0.50;;;;;;;;;;5050258;28;20229;-13
2022/08/31 03:59:48;;;;;;;1.10;0.60;;;;;;;;;;5050160;28;20227;-13
2022/08/31 04:02:15;;;;;;;1.40;0.60;;;;;;;;;;5050221;28;20246;-13
2022/08/31 04:04:42;;;;;;;1.13;0.55;;;;;;;;;;5050391;28;20229;-13
2022/08/31 04:07:10;;;;;;;2.00;0.52;;;;;;;;;;5049796;28;20229;-13
2022/08/31 04:09:37;;;;;;;1.90;0.52;;;;;;;;;;5050457;28;20242;-13
2022/08/31 04:12:04;;;;;;;1.55;0.60;;;;;;;;;;5050103;28;20262;-13
2022/08/31 04:14:33;;;;;;;0.77;0.60;;;;;;;;;;5050352;28;20613;-13
2022/08/31 04:17:01;;;;;;;2.25;0.57;;;;;;;;;;5050500;28;20681;-13
2022/08/31 04:19:28;;;;;;;1.20;0.50;;;;;;;;;;5049976;28;20233;-13
2022/08/31 04:21:57;;;;;;;1.73;0.60;;;;;;;;;;5049808;28;20666;-13
2022/08/31 04:24:25;;;;;;;1.27;0.52;;;;;;;;;;5050126;28;20234;-13
2022/08/31 04:26:52;;;;;;;0.82;0.70;;;;;;;;;;5050284;28;20226;-13
2022/08/31 04:29:19;;;;;;;0.60;0.47;;;;;;;;;;5049958;28;20234;-13
2022/08/31 04:31:48;;;;;;;2.45;0.60;;;;;;;;;;5050044;28;20612;-13
2022/08/31 04:34:16;;;;;;;1.10;0.40;;;;;;;;;;5053533;28;20279;-13
2022/08/31 04:36:45;;;;;;;1.13;0.50;;;;;;;;;;5049935;28;20234;-13
2022/08/31 04:39:12;;;;;;;1.52;0.50;;;;;;;;;;5050583;28;21037;-13
2022/08/31 04:41:40;;;;;;;1.33;0.50;;;;;;;;;;5049577;28;20712;-13
2022/08/31 04:44:07;;;;;;;1.23;0.50;;;;;;;;;;5049465;28;20230;-13
2022/08/31 04:46:35;;;;;;;1.83;0.60;;;;;;;;;;5049716;28;20226;-13
2022/08/31 04:49:06;;;;;;;2.15;0.50;;;;;;;;;;5049671;28;20230;-13
2022/08/31 04:51:34;;;;;;;1.08;0.52;;;;;;;;;;5050036;28;21011;-13
2022/08/31 04:54:02;;;;;;;1.25;0.47;;;;;;;;;;5049610;28;20233;-13
2022/08/31 04:56:30;;;;;;;2.58;0.60;;;;;;;;;;5049579;28;20845;-13
2022/08/31 04:58:58;;;;;;;2.10;0.45;;;;;;;;;;5049697;28;20230;-13
2022/08/31 05:01:26;;;;;;;3.92;0.55;;;;;;;;;;5049722;28;20245;-13
2022/08/31 05:03:55;;;;;;;2.40;0.50;;;;;;;;;;5049349;28;21184;-13
2022/08/31 05:06:24;;;;;;;2.80;0.60;;;;;;;;;;5048870;28;20230;-13
2022/08/31 05:08:53;;;;;;;1.58;0.60;;;;;;;;;;5049151;28;20325;-13
2022/08/31 05:11:21;;;;;;;0.98;0.60;;;;;;;;;;5049405;28;20230;-13
2022/08/31 05:13:52;;;;;;;2.45;0.68;;;;;;;;;;5049405;28;20697;-13
2022/08/31 05:16:19;;;;;;;4.60;0.70;;;;;;;;;;5048983;28;21085;-13
2022/08/31 05:18:47;;;;;;;1.02;0.60;;;;;;;;;;5049454;28;20230;-13
2022/08/31 05:21:16;;;;;;;0.80;0.43;;;;;;;;;;5052744;28;20222;-13
2022/08/31 05:23:46;;;;;;;2.13;0.82;;;;;;;;;;5052862;28;20230;-13
2022/08/31 05:26:16;;;;;;;1.80;0.60;;;;;;;;;;5053144;28;20708;-13
2022/08/31 05:28:43;;;;;;;2.80;0.75;;;;;;;;;;5052133;28;20921;-13
2022/08/31 05:31:10;;;;;;;2.78;0.60;;;;;;;;;;5052825;28;21020;-13
2022/08/31 05:33:38;;;;;;;2.83;0.60;;;;;;;;;;5052551;28;20230;-13
2022/08/31 05:36:06;;;;;;;2.25;0.50;;;;;;;;;;5047097;28;20237;-13
2022/08/31 05:38:33;;;;;;;1.40;0.70;;;;;;;;;;5051895;28;20296;-12
2022/08/31 05:41:04;;;;;;;1.48;0.60;;;;;;;;;;5052677;28;20291;-12
2022/08/31 05:43:32;;;;;;;1.10;0.75;;;;;;;;;;5052683;28;20248;-12
2022/08/31 05:45:59;;;;;;;1.35;0.43;;;;;;;;;;5052547;28;20233;-12
2022/08/31 05:48:32;;;;;;;2.53;0.40;;;;;;;;;;5050178;28;20233;-12
2022/08/31 05:51:00;;;;;;;3.67;0.50;;;;;;;;;;5037740;28;20231;-12
2022/08/31 05:53:28;;;;;;;1.30;0.40;;;;;;;;;;5044456;28;20981;-12
2022/08/31 05:55:59;;;;;;;2.20;0.80;;;;;;;;;;5044769;28;20241;-12
2022/08/31 05:58:27;;;;;;;1.40;0.63;;;;;;;;;;5040773;28;20230;-12
2022/08/31 06:00:55;;;;;;;1.20;0.57;;;;;;;;;;5043337;28;20940;-12
2022/08/31 06:03:22;;;;;;;2.47;0.80;;;;;;;;;;5044504;28;20725;-12
2022/08/31 06:05:50;;;;;;;4.30;0.70;;;;;;;;;;5048557;28;20574;-12
2022/08/31 06:08:17;;;;;;;3.88;0.50;;;;;;;;;;5043674;28;20245;-12
2022/08/31 06:10:56;;;;;;;4.28;0.90;;;;;;;;;;5039255;28;20704;-12
2022/08/31 06:13:25;;;;;;;1.65;0.40;;;;;;;;;;5044336;28;20226;-12
2022/08/31 06:15:54;;;;;;;3.03;0.60;;;;;;;;;;5049134;28;20325;-12
2022/08/31 06:18:22;;;;;;;3.00;0.70;;;;;;;;;;5051434;28;20233;-12
2022/08/31 06:20:49;;;;;;;4.03;0.70;;;;;;;;;;5052402;28;20701;-12
2022/08/31 06:23:17;;;;;;;5.35;0.60;;;;;;;;;;5055542;28;20334;-12
2022/08/31 06:25:44;;;;;;;2.55;0.70;;;;;;;;;;5051865;28;20325;-12
2022/08/31 06:28:13;;;;;;;2.80;0.70;;;;;;;;;;5052296;28;20230;-12
2022/08/31 06:30:40;;;;;;;8.70;0.73;;;;;;;;;;5051905;28;20230;-12
2022/08/31 06:33:23;;;;;;;5.47;0.80;;;;;;;;;;5049923;28;20233;-12
2022/08/31 06:35:50;;;;;;;4.30;0.95;;;;;;;;;;5051355;28;20230;-12
2022/08/31 06:38:18;;;;;;;2.40;0.80;;;;;;;;;;5045842;28;20230;-12
2022/08/31 06:40:45;;;;;;;8.05;0.75;;;;;;;;;;5051254;28;20233;-12
2022/08/31 06:43:12;;;;;;;8.25;1.15;;;;;;;;;;5050934;28;20276;-12
2022/08/31 06:45:40;;;;;;;6.43;1.40;;;;;;;;;;5050679;28;20340;-12
2022/08/31 06:48:07;;;;;;;2.55;1.20;;;;;;;;;;5050982;28;20716;-12
2022/08/31 06:50:37;;;;;;;5.18;1.17;;;;;;;;;;5050980;28;20234;-12
2022/08/31 06:53:05;;;;;;;4.47;0.90;;;;;;;;;;5048357;28;20230;-12
2022/08/31 06:55:32;;;;;;;3.60;1.15;;;;;;;;;;5044830;28;20600;-12
2022/08/31 06:58:00;;;;;;;6.72;1.13;;;;;;;;;;5047674;28;20697;-12
2022/08/31 07:00:27;;;;;;;6.97;1.00;;;;;;;;;;5049182;28;20655;-12
2022/08/31 07:02:54;;;;;;;6.75;1.08;;;;;;;;;;5048463;28;20705;-12
2022/08/31 07:05:24;;;;;;;5.85;0.90;;;;;;;;;;5049064;28;20253;-12
2022/08/31 07:07:53;;;;;;;3.47;0.70;;;;;;;;;;5047576;28;21021;-12
2022/08/31 07:10:20;;;;;;;4.22;1.02;;;;;;;;;;5047600;28;20241;-12
2022/08/31 07:12:48;;;;;;;5.22;1.05;;;;;;;;;;5048508;28;20712;-12
2022/08/31 07:15:15;;;;;;;3.63;0.93;;;;;;;;;;5048196;28;20822;-12
2022/08/31 07:17:42;;;;;;;2.08;0.90;;;;;;;;;;5048908;28;20237;-12
2022/08/31 07:20:10;;;;;;;6.00;0.70;;;;;;;;;;5048487;28;20254;-12
2022/08/31 07:22:37;;;;;;;2.63;0.75;;;;;;;;;;5046638;28;20242;-12
2022/08/31 07:25:09;;;;;;;4.47;1.05;;;;;;;;;;5048504;28;20233;-12
2022/08/31 07:27:38;;;;;;;2.25;0.57;;;;;;;;;;5049346;28;20234;-12
2022/08/31 07:30:08;;;;;;;5.18;0.70;;;;;;;;;;5047435;28;20725;-12
2022/08/31 07:32:37;;;;;;;8.45;1.00;;;;;;;;;;5050115;28;20234;-12
2022/08/31 07:35:04;;;;;;;5.82;0.68;;;;;;;;;;5050204;28;20274;-12
2022/08/31 07:43:09;;;;;;;6.68;0.88;;;;;;;;;;5032762;28;20340;-12
2022/08/31 07:45:36;;;;;;;3.22;0.70;;;;;;;;;;5050260;28;20237;-12
2022/08/31 07:48:05;;;;;;;2.95;0.90;;;;;;;;;;5050604;28;20222;-12
2022/08/31 07:50:33;;;;;;;3.35;1.13;;;;;;;;;;5050030;28;20238;-12
2022/08/31 07:53:01;;;;;;;4.32;0.90;;;;;;;;;;5050542;28;20230;-12
2022/08/31 07:55:33;;;;;;;2.28;0.80;;;;;;;;;;5050216;28;20225;-12
2022/08/31 07:58:02;;;;;;;3.28;0.73;;;;;;;;;;5048339;28;20233;-12
2022/08/31 08:00:31;;;;;;;3.58;1.10;;;;;;;;;;5047281;28;20223;-12
2022/08/31 08:03:06;;;;;;;5.47;0.80;;;;;;;;;;5036244;28;20239;-12
2022/08/31 08:05:40;;;;;;;2.88;0.82;;;;;;;;;;5042741;28;20237;-12
2022/08/31 08:08:08;;;;;;;3.72;1.33;;;;;;;;;;5036538;28;20305;-12
2022/08/31 08:10:46;;;;;;;4.00;0.90;;;;;;;;;;5043517;28;20230;-12
2022/08/31 08:13:19;;;;;;;2.10;0.82;;;;;;;;;;5046377;28;20966;-12
2022/08/31 08:15:49;;;;;;;7.95;1.27;;;;;;;;;;5050062;28;20288;-12
2022/08/31 08:18:18;;;;;;;4.72;1.20;;;;;;;;;;5046291;28;20233;-12
2022/08/31 08:20:46;;;;;;;1.65;0.80;;;;;;;;;;5045641;28;20258;-12
2022/08/31 08:23:16;;;;;;;8.10;1.00;;;;;;;;;;5037745;28;20242;-12
2022/08/31 08:25:46;;;;;;;8.88;1.42;;;;;;;;;;5048893;28;20240;-11
2022/08/31 08:28:16;;;;;;;5.75;1.15;;;;;;;;;;5045167;28;20230;-12
2022/08/31 08:31:03;;;;;;;6.22;1.00;;;;;;;;;;5048075;28;20238;-13
2022/08/31 08:33:31;;;;;;;3.90;1.13;;;;;;;;;;5048807;28;20266;-11
2022/08/31 08:36:01;;;;;;;9.90;1.10;;;;;;;;;;5045445;28;20225;-12
2022/08/31 08:38:29;;;;;;;7.45;1.10;;;;;;;;;;5050118;28;20701;-12
2022/08/31 08:40:58;;;;;;;5.15;0.82;;;;;;;;;;5050179;28;20329;-12
2022/08/31 08:43:28;;;;;;;5.60;1.10;;;;;;;;;;5049786;28;20241;-12
2022/08/31 08:45:57;;;;;;;5.00;0.93;;;;;;;;;;5047936;28;20245;-12
2022/08/31 08:48:45;;;;;;;1.83;1.10;;;;;;;;;;5048904;28;20230;-12
2022/08/31 08:51:32;;;;;;;5.97;1.13;;;;;;;;;;5048673;28;20328;-12
2022/08/31 08:54:01;;;;;;;6.30;1.05;;;;;;;;;;5047545;28;20233;-12
2022/08/31 08:56:29;;;;;;;2.88;0.93;;;;;;;;;;5048479;28;20229;-12
2022/08/31 08:59:01;;;;;;;5.78;1.20;;;;;;;;;;5048712;28;20234;-12
2022/08/31 09:01:29;;;;;;;2.15;0.80;;;;;;;;;;5048784;28;20234;-12
2022/08/31 09:03:58;;;;;;;4.35;0.90;;;;;;;;;;5049163;28;20234;-12
2022/08/31 09:06:27;;;;;;;4.90;1.00;;;;;;;;;;5048595;28;20987;-12
2022/08/31 09:09:19;;;;;;;1.95;0.80;;;;;;;;;;5048761;28;21228;-12
2022/08/31 09:11:52;;;;;;;3.13;0.80;;;;;;;;;;5048773;28;20239;-12
2022/08/31 09:14:23;;;;;;;5.28;1.02;;;;;;;;;;5049467;28;20229;-12
2022/08/31 09:16:52;;;;;;;2.97;0.95;;;;;;;;;;5048789;28;20230;-12
2022/08/31 09:19:19;;;;;;;2.20;0.90;;;;;;;;;;5048340;28;20238;-12
2022/08/31 09:21:47;;;;;;;2.20;0.90;;;;;;;;;;5048371;28;20246;-12
2022/08/31 09:24:15;;;;;;;5.97;1.52;;;;;;;;;;5049196;28;20238;-12
2022/08/31 09:26:50;;;;;;;7.13;1.00;;;;;;;;;;5048255;28;20271;-12
2022/08/31 09:29:21;;;;;;;4.70;1.02;;;;;;;;;;5048161;28;20229;-12
2022/08/31 09:31:48;;;;;;;5.25;1.00;;;;;;;;;;5041844;28;20231;-12
2022/08/31 09:34:27;;;;;;;2.65;0.93;;;;;;;;;;5037784;28;20234;-12
2022/08/31 09:37:00;;;;;;;2.90;0.88;;;;;;;;;;5042025;28;20257;-12
2022/08/31 09:39:29;;;;;;;2.92;1.10;;;;;;;;;;5030617;28;20233;-12
2022/08/31 09:42:14;;;;;;;4.18;1.10;;;;;;;;;;5039585;28;20229;-12
2022/08/31 09:44:45;;;;;;;3.25;1.00;;;;;;;;;;5048567;28;20317;-12
2022/08/31 09:47:18;;;;;;;1.92;0.80;;;;;;;;;;5048244;28;20233;-12
2022/08/31 09:49:53;;;;;;;3.58;0.90;;;;;;;;;;5048080;28;20349;-12
2022/08/31 09:55:11;;;;;;;7.90;0.93;;;;;;;;;;5047997;28;20905;-11
2022/08/31 09:55:12;;;;;;;7.65;1.10;;;;;;;;;;5047276;28;20662;-12
2022/08/31 09:57:44;;;;;;;5.18;1.20;;;;;;;;;;5048567;28;20226;-12
2022/08/31 10:00:15;;;;;;;2.03;0.82;;;;;;;;;;5048305;28;20229;-12
2022/08/31 10:02:42;;;;;;;5.32;0.98;;;;;;;;;;5047892;28;20233;-12
2022/08/31 10:05:25;;;;;;;4.80;1.08;;;;;;;;;;5048908;28;20245;-12
2022/08/31 10:07:54;;;;;;;7.25;1.10;;;;;;;;;;5051859;28;20284;-12
2022/08/31 10:10:22;;;;;;;6.20;1.05;;;;;;;;;;5052878;28;20685;-12
2022/08/31 10:12:59;;;;;;;1.98;0.90;;;;;;;;;;5052576;28;20317;-12
2022/08/31 10:15:29;;;;;;;2.92;0.90;;;;;;;;;;5051570;28;20230;-12
2022/08/31 10:18:01;;;;;;;1.63;0.70;;;;;;;;;;5038191;28;20234;-12
2022/08/31 10:20:30;;;;;;;3.17;1.10;;;;;;;;;;5052000;28;20622;-12
2022/08/31 10:23:04;;;;;;;2.88;1.17;;;;;;;;;;5051460;28;20238;-12
2022/08/31 10:25:34;;;;;;;3.03;0.90;;;;;;;;;;5051187;28;20670;-12
2022/08/31 10:28:07;;;;;;;2.40;1.00;;;;;;;;;;5051966;28;20237;-12
2022/08/31 10:30:36;;;;;;;3.55;1.02;;;;;;;;;;5051687;28;20237;-12
2022/08/31 10:33:05;;;;;;;4.88;0.93;;;;;;;;;;5052055;28;20230;-12
2022/08/31 10:35:36;;;;;;;4.53;0.90;;;;;;;;;;5051554;28;21084;-12
2022/08/31 10:38:07;;;;;;;1.50;0.88;;;;;;;;;;5051570;28;20226;-12
2022/08/31 10:40:38;;;;;;;3.80;0.93;;;;;;;;;;5051619;28;20230;-12
2022/08/31 10:43:08;;;;;;;2.63;0.82;;;;;;;;;;5051348;28;20256;-12
2022/08/31 10:45:38;;;;;;;4.55;1.00;;;;;;;;;;5049378;28;20238;-12
2022/08/31 10:48:06;;;;;;;2.45;1.10;;;;;;;;;;5036736;28;20241;-12
2022/08/31 10:50:37;;;;;;;5.13;1.02;;;;;;;;;;5050208;28;20277;-12
2022/08/31 10:53:12;;;;;;;2.22;1.08;;;;;;;;;;5051259;28;20233;-12
2022/08/31 10:55:40;;;;;;;3.78;1.33;;;;;;;;;;5051671;28;20235;-12
2022/08/31 10:58:10;;;;;;;1.92;1.00;;;;;;;;;;5047831;28;20806;-12
2022/08/31 11:00:45;;;;;;;2.72;0.95;;;;;;;;;;5040138;28;20616;-12
2022/08/31 11:03:13;;;;;;;3.50;0.73;;;;;;;;;;5049798;28;20724;-12
2022/08/31 11:05:41;;;;;;;2.38;1.05;;;;;;;;;;5047932;28;20238;-12
2022/08/31 11:08:16;;;;;;;1.63;0.63;;;;;;;;;;5049795;28;20230;-12
2022/08/31 11:10:47;;;;;;;2.75;0.80;;;;;;;;;;5043211;28;20260;-12
2022/08/31 11:13:19;;;;;;;2.80;1.00;;;;;;;;;;5050223;28;20614;-12
2022/08/31 11:16:00;;;;;;;1.35;0.90;;;;;;;;;;5050345;28;20671;-12
2022/08/31 11:18:38;;;;;;;4.90;0.85;;;;;;;;;;5049816;28;20245;-12
2022/08/31 11:21:09;;;;;;;2.65;1.00;;;;;;;;;;5049884;28;21028;-12
2022/08/31 11:23:47;;;;;;;2.00;0.70;;;;;;;;;;5049658;28;20238;-12
2022/08/31 11:26:37;;;;;;;4.88;1.20;;;;;;;;;;5049934;28;20234;-12
2022/08/31 11:29:08;;;;;;;3.65;0.82;;;;;;;;;;5045469;28;20241;-12
2022/08/31 11:31:37;;;;;;;6.82;1.33;;;;;;;;;;5050256;28;20237;-12
2022/08/31 11:34:07;;;;;;;2.88;0.75;;;;;;;;;;5049684;28;20226;-12
2022/08/31 11:36:48;;;;;;;3.00;1.00;;;;;;;;;;5049823;28;20238;-12
2022/08/31 11:39:21;;;;;;;4.50;1.10;;;;;;;;;;5050010;28;20234;-12
2022/08/31 11:41:49;;;;;;;4.97;1.00;;;;;;;;;;5049645;28;20653;-12
2022/08/31 11:44:38;;;;;;;3.70;0.98;;;;;;;;;;5049612;28;20234;-12
2022/08/31 11:47:06;;;;;;;3.63;0.80;;;;;;;;;;5049740;28;20245;-12
2022/08/31 11:49:42;;;;;;;6.78;1.00;;;;;;;;;;5049655;28;20953;-12
2022/08/31 11:52:28;;;;;;;2.67;0.77;;;;;;;;;;5049265;28;20226;-12
2022/08/31 11:54:57;;;;;;;3.90;0.70;;;;;;;;;;5038220;28;20230;-10
2022/08/31 11:57:25;;;;;;;3.50;0.90;;;;;;;;;;5050015;28;20559;-11
2022/08/31 11:59:53;;;;;;;1.40;0.77;;;;;;;;;;5049626;28;20244;-11
2022/08/31 12:02:40;;;;;;;1.20;0.70;;;;;;;;;;5050157;28;20226;-11
2022/08/31 12:05:09;;;;;;;1.20;1.00;;;;;;;;;;5048950;28;20284;-11
2022/08/31 12:07:39;;;;;;;4.32;1.00;;;;;;;;;;5049760;28;20230;-11
2022/08/31 12:10:31;;;;;;;2.45;0.90;;;;;;;;;;5049054;28;20234;-11
2022/08/31 12:13:17;;;;;;;2.25;1.20;;;;;;;;;;5034255;28;20226;-11
2022/08/31 12:16:03;;;;;;;2.75;0.73;;;;;;;;;;5048387;28;20226;-11
2022/08/31 12:18:37;;;;;;;1.77;1.05;;;;;;;;;;5049613;28;20238;-11
2022/08/31 12:23:55;;;;;;;2.10;0.98;;;;;;;;;;5048806;28;20269;-11
2022/08/31 12:26:32;;;;;;;7.55;1.17;;;;;;;;;;5047983;28;20242;-12
2022/08/31 12:29:10;;;;;;;7.85;1.48;;;;;;;;;;5049263;28;20229;-11
2022/08/31 12:31:37;;;;;;;8.68;1.20;;;;;;;;;;5046824;28;20237;-11
2022/08/31 12:34:06;;;;;;;6.25;0.93;;;;;;;;;;5048693;28;20284;-11
2022/08/31 12:36:35;;;;;;;3.70;1.02;;;;;;;;;;5048310;28;20803;-11
2022/08/31 12:39:07;;;;;;;4.55;1.20;;;;;;;;;;5048251;28;20262;-11
2022/08/31 12:41:35;;;;;;;3.35;1.08;;;;;;;;;;5048539;28;20730;-11
2022/08/31 12:44:02;;;;;;;4.00;1.00;;;;;;;;;;5049142;28;20272;-11
2022/08/31 12:46:33;;;;;;;2.13;1.20;;;;;;;;;;5048648;28;20234;-11
2022/08/31 12:49:15;;;;;;;1.40;0.90;;;;;;;;;;5049244;28;20234;-11
2022/08/31 12:51:45;;;;;;;3.20;1.00;;;;;;;;;;5035234;28;20264;-11
2022/08/31 12:54:18;;;;;;;2.22;1.00;;;;;;;;;;5049122;28;20234;-11
2022/08/31 12:56:47;;;;;;;2.70;1.17;;;;;;;;;;5048413;28;20229;-11
2022/08/31 12:59:18;;;;;;;3.13;0.95;;;;;;;;;;5048717;28;20230;-11
2022/08/31 13:01:46;;;;;;;3.13;1.00;;;;;;;;;;5048466;28;20974;-11
2022/08/31 13:04:15;;;;;;;1.17;0.82;;;;;;;;;;5048725;28;20222;-11
2022/08/31 13:06:44;;;;;;;2.35;0.90;;;;;;;;;;5048292;28;20252;-11
2022/08/31 13:09:24;;;;;;;2.20;1.00;;;;;;;;;;5048535;28;20237;-11
2022/08/31 13:11:51;;;;;;;1.88;0.77;;;;;;;;;;5048675;28;21055;-11
2022/08/31 13:14:21;;;;;;;1.00;0.90;;;;;;;;;;5048906;28;21126;-11
2022/08/31 13:16:49;;;;;;;3.13;1.00;;;;;;;;;;5048244;28;20234;-11
2022/08/31 13:19:24;;;;;;;1.45;1.02;;;;;;;;;;5048621;28;20238;-11
2022/08/31 13:21:53;;;;;;;0.95;0.75;;;;;;;;;;5047373;28;20241;-11
2022/08/31 13:24:25;;;;;;;1.90;1.00;;;;;;;;;;5049048;28;20230;-11
2022/08/31 13:27:02;;;;;;;1.65;0.90;;;;;;;;;;5049061;28;20242;-11
2022/08/31 13:29:29;;;;;;;1.75;0.73;;;;;;;;;;5049192;28;20229;-11
2022/08/31 13:31:58;;;;;;;5.65;0.88;;;;;;;;;;5048545;28;21018;-11
2022/08/31 13:34:26;;;;;;;1.60;1.00;;;;;;;;;;5050033;28;20241;-11
2022/08/31 13:36:53;;;;;;;3.33;0.90;;;;;;;;;;5048567;28;20234;-11
2022/08/31 13:39:23;;;;;;;1.92;0.98;;;;;;;;;;5048897;28;20234;-13
2022/08/31 13:41:55;;;;;;;2.10;0.80;;;;;;;;;;5050288;28;20230;-12
2022/08/31 13:44:24;;;;;;;1.30;1.10;;;;;;;;;;5051311;28;20236;-12
2022/08/31 13:46:59;;;;;;;1.65;0.80;;;;;;;;;;5050965;28;20246;-12
2022/08/31 13:49:34;;;;;;;4.30;0.90;;;;;;;;;;5052069;28;20236;-12
2022/08/31 13:52:01;;;;;;;2.97;1.02;;;;;;;;;;5051533;28;20237;-12
2022/08/31 13:54:30;;;;;;;5.28;1.17;;;;;;;;;;5056988;28;20226;-12
2022/08/31 13:57:09;;;;;;;5.28;1.00;;;;;;;;;;5051674;28;20724;-12
2022/08/31 13:59:37;;;;;;;4.18;1.08;;;;;;;;;;5052195;28;20229;-12
2022/08/31 14:02:06;;;;;;;5.43;1.15;;;;;;;;;;5051840;28;20237;-12
2022/08/31 14:04:47;;;;;;;2.22;0.90;;;;;;;;;;5051402;28;20234;-12
2022/08/31 14:07:18;;;;;;;1.92;1.10;;;;;;;;;;5050790;28;20328;-12
2022/08/31 14:09:45;;;;;;;1.58;0.80;;;;;;;;;;5043375;28;20245;-12
2022/08/31 14:12:30;;;;;;;3.22;1.10;;;;;;;;;;5047898;28;20851;-12
2022/08/31 14:14:58;;;;;;;4.88;0.80;;;;;;;;;;5051087;28;20305;-12
2022/08/31 14:17:25;;;;;;;1.85;0.82;;;;;;;;;;5049938;28;20244;-12
2022/08/31 14:19:53;;;;;;;2.75;1.00;;;;;;;;;;5041039;28;20242;-12
2022/08/31 14:22:26;;;;;;;1.58;0.73;;;;;;;;;;5043698;28;20248;-13
2022/08/31 14:24:54;;;;;;;4.50;0.90;;;;;;;;;;5047107;28;20322;-12
2022/08/31 14:27:23;;;;;;;3.13;0.93;;;;;;;;;;5043613;28;20249;-12
2022/08/31 14:29:51;;;;;;;2.00;0.98;;;;;;;;;;5049133;28;20317;-12
2022/08/31 14:32:20;;;;;;;2.40;0.95;;;;;;;;;;5043627;28;20226;-12
2022/08/31 14:34:49;;;;;;;3.58;0.90;;;;;;;;;;5044962;28;20240;-12
2022/08/31 14:37:21;;;;;;;3.40;1.00;;;;;;;;;;5044574;28;20329;-12
2022/08/31 14:39:50;;;;;;;3.80;0.95;;;;;;;;;;5048285;28;20226;-12
2022/08/31 14:42:18;;;;;;;2.03;0.88;;;;;;;;;;5048957;28;20229;-12
2022/08/31 14:44:51;;;;;;;4.35;0.90;;;;;;;;;;5044977;28;20815;-12
2022/08/31 14:47:20;;;;;;;6.65;1.20;;;;;;;;;;5041512;28;20246;-12
2022/08/31 14:49:48;;;;;;;2.10;0.80;;;;;;;;;;5048115;28;20381;-12
2022/08/31 14:52:16;;;;;;;2.58;0.75;;;;;;;;;;5042156;28;20350;-12
2022/08/31 14:54:43;;;;;;;5.15;0.98;;;;;;;;;;5040200;28;20234;-12
2022/08/31 14:57:11;;;;;;;1.55;0.85;;;;;;;;;;5039261;28;20241;-12
2022/08/31 14:59:40;;;;;;;1.33;0.80;;;;;;;;;;5045792;28;20749;-12
2022/08/31 15:02:10;;;;;;;1.00;0.80;;;;;;;;;;5045253;28;20292;-13
2022/08/31 15:04:38;;;;;;;3.00;1.60;;;;;;;;;;5044826;28;20236;-11
2022/08/31 15:07:12;;;;;;;5.15;0.98;;;;;;;;;;5044281;28;20717;-12
2022/08/31 15:09:41;;;;;;;1.35;0.80;;;;;;;;;;5047495;28;20250;-12
2022/08/31 15:12:10;;;;;;;2.70;1.02;;;;;;;;;;5038340;28;21096;-11